createdAt,value
2018-04-07T00:00:38.308Z,17.77
2018-04-07T00:03:06.696Z,17.55
2018-04-07T00:05:34.468Z,17.43
2018-04-07T00:08:02.232Z,17.52
2018-04-07T00:10:29.772Z,17.61
2018-04-07T00:12:57.364Z,17.67
2018-04-07T00:15:25.004Z,17.71
2018-04-07T00:17:52.547Z,17.80
2018-04-07T00:20:20.428Z,17.89
2018-04-07T00:22:50.034Z,17.95
2018-04-07T00:25:17.624Z,17.99
2018-04-07T00:27:45.188Z,18.03
2018-04-07T00:30:13.168Z,17.93
2018-04-07T00:32:40.721Z,18.01
2018-04-07T00:35:08.280Z,18.00
2018-04-07T00:37:35.864Z,18.07
2018-04-07T00:40:03.472Z,18.10
2018-04-07T00:42:31.049Z,18.10
2018-04-07T00:44:58.651Z,18.13
2018-04-07T00:47:26.558Z,18.13
2018-04-07T00:49:54.547Z,18.15
2018-04-07T00:52:22.228Z,18.16
2018-04-07T00:54:49.767Z,18.18
2018-04-07T00:57:18.240Z,18.18
2018-04-07T00:59:45.781Z,18.18
2018-04-07T01:02:13.702Z,18.18
2018-04-07T01:04:42.480Z,18.19
2018-04-07T01:07:10.024Z,18.23
2018-04-07T01:09:37.869Z,18.21
2018-04-07T01:12:05.505Z,18.18
2018-04-07T01:14:33.048Z,18.19
2018-04-07T01:17:01.019Z,18.19
2018-04-07T01:19:28.633Z,18.20
2018-04-07T01:21:56.217Z,18.21
2018-04-07T01:24:23.812Z,18.20
2018-04-07T01:26:51.758Z,18.17
2018-04-07T01:29:19.325Z,18.04
2018-04-07T01:31:47.061Z,17.99
2018-04-07T01:34:14.615Z,18.04
2018-04-07T01:36:42.185Z,17.94
2018-04-07T01:39:10.406Z,18.01
2018-04-07T01:41:38.378Z,18.07
2018-04-07T01:44:05.964Z,18.05
2018-04-07T01:46:33.560Z,18.07
2018-04-07T01:49:01.104Z,18.07
2018-04-07T01:51:28.917Z,18.12
2018-04-07T01:53:56.512Z,18.13
2018-04-07T01:56:24.067Z,18.14
2018-04-07T01:58:52.652Z,18.14
2018-04-07T02:01:20.199Z,18.14
2018-04-07T02:03:48.796Z,18.15
2018-04-07T02:06:16.340Z,18.17
2018-04-07T02:08:43.892Z,18.14
2018-04-07T02:11:12.144Z,18.14
2018-04-07T02:13:39.702Z,17.92
2018-04-07T02:16:07.787Z,17.93
2018-04-07T02:18:35.336Z,17.99
2018-04-07T02:21:03.058Z,18.01
2018-04-07T02:23:30.624Z,18.02
2018-04-07T02:25:58.205Z,18.04
2018-04-07T02:28:26.011Z,18.07
2018-04-07T02:30:53.716Z,18.05
2018-04-07T02:33:21.481Z,18.03
2018-04-07T02:35:49.069Z,18.05
2018-04-07T02:38:16.618Z,18.00
2018-04-07T02:40:44.526Z,18.02
2018-04-07T02:43:12.905Z,18.03
2018-04-07T02:45:40.449Z,18.01
2018-04-07T02:48:08.972Z,18.00
2018-04-07T02:50:36.946Z,17.99
2018-04-07T02:53:05.038Z,17.99
2018-04-07T02:55:32.584Z,18.00
2018-04-07T02:58:01.117Z,17.93
2018-04-07T03:00:28.664Z,17.85
2018-04-07T03:02:56.833Z,17.89
2018-04-07T03:05:24.436Z,17.91
2018-04-07T03:07:52.916Z,17.95
2018-04-07T03:10:20.500Z,17.91
2018-04-07T03:12:48.765Z,17.91
2018-04-07T03:15:16.355Z,17.88
2018-04-07T03:17:43.896Z,17.88
2018-04-07T03:20:11.492Z,17.92
2018-04-07T03:22:39.055Z,17.95
2018-04-07T03:25:06.656Z,17.99
2018-04-07T03:27:34.540Z,18.00
2018-04-07T03:30:02.905Z,18.00
2018-04-07T03:32:30.500Z,17.96
2018-04-07T03:34:58.433Z,17.95
2018-04-07T03:37:26.501Z,17.96
2018-04-07T03:39:54.051Z,17.94
2018-04-07T03:42:21.660Z,17.96
2018-04-07T03:44:49.219Z,17.94
2018-04-07T03:47:17.581Z,17.90
2018-04-07T03:49:45.702Z,17.82
2018-04-07T03:52:13.248Z,17.75
2018-04-07T03:54:41.795Z,17.74
2018-04-07T03:57:09.925Z,17.39
2018-04-07T03:59:38.412Z,17.49
2018-04-07T04:02:06.360Z,17.55
2018-04-07T04:04:34.473Z,17.60
2018-04-07T04:07:02.029Z,17.62
2018-04-07T04:09:30.013Z,17.68
2018-04-07T04:11:57.561Z,17.71
2018-04-07T04:14:25.368Z,17.56
2018-04-07T04:16:53.130Z,17.51
2018-04-07T04:19:21.035Z,17.35
2018-04-07T04:21:49.265Z,17.31
2018-04-07T04:24:16.864Z,17.11
2018-04-07T04:26:44.646Z,16.96
2018-04-07T04:29:12.714Z,16.95
2018-04-07T04:31:40.840Z,17.04
2018-04-07T04:34:08.427Z,17.13
2018-04-07T04:36:36.653Z,17.10
2018-04-07T04:39:04.320Z,17.11
2018-04-07T04:41:32.560Z,16.76
2018-04-07T04:44:00.110Z,16.59
2018-04-07T04:46:27.721Z,16.62
2018-04-07T04:48:55.656Z,16.50
2018-04-07T04:51:23.268Z,16.47
2018-04-07T04:53:50.815Z,16.23
2018-04-07T04:56:18.408Z,16.20
2018-04-07T04:58:46.009Z,16.19
2018-04-07T05:01:13.560Z,16.42
2018-04-07T05:03:41.683Z,16.61
2018-04-07T05:06:10.163Z,16.81
2018-04-07T05:08:37.736Z,16.99
2018-04-07T05:11:05.823Z,17.17
2018-04-07T05:13:33.368Z,17.34
2018-04-07T05:16:01.298Z,17.39
2018-04-07T05:18:28.877Z,17.45
2018-04-07T05:20:58.444Z,17.52
2018-04-07T05:23:26.561Z,17.63
2018-04-07T05:25:54.669Z,17.68
2018-04-07T05:28:23.280Z,17.74
2018-04-07T05:30:50.881Z,17.69
2018-04-07T05:33:18.766Z,17.55
2018-04-07T05:35:48.509Z,17.45
2018-04-07T05:38:16.076Z,17.45
2018-04-07T05:40:43.668Z,17.50
2018-04-07T05:43:11.212Z,17.48
2018-04-07T05:45:38.764Z,17.56
2018-04-07T05:48:06.315Z,17.66
2018-04-07T05:50:33.860Z,17.73
2018-04-07T05:53:01.844Z,17.77
2018-04-07T05:55:30.088Z,17.85
2018-04-07T05:57:57.992Z,17.88
2018-04-07T06:00:25.600Z,17.84
2018-04-07T06:02:53.384Z,17.78
2018-04-07T06:05:21.247Z,17.72
2018-04-07T06:07:49.580Z,17.74
2018-04-07T06:10:17.499Z,17.78
2018-04-07T06:12:45.588Z,17.86
2018-04-07T06:15:13.935Z,17.89
2018-04-07T06:17:41.805Z,17.85
2018-04-07T06:20:09.349Z,17.74
2018-04-07T06:22:36.899Z,17.74
2018-04-07T06:25:04.848Z,17.89
2018-04-07T06:27:33.546Z,18.03
2018-04-07T06:30:01.436Z,18.12
2018-04-07T06:32:29.023Z,18.10
2018-04-07T06:34:56.869Z,18.22
2018-04-07T06:37:25.652Z,18.12
2018-04-07T06:39:54.343Z,18.33
2018-04-07T06:42:22.413Z,18.41
2018-04-07T06:44:50.039Z,18.65
2018-04-07T06:47:18.656Z,18.71
2018-04-07T06:49:47.223Z,18.76
2018-04-07T06:52:16.063Z,18.82
2018-04-07T06:54:43.660Z,18.92
2018-04-07T06:57:11.215Z,18.98
2018-04-07T06:59:39.305Z,18.99
2018-04-07T07:02:08.346Z,19.01
2018-04-07T07:04:36.744Z,19.00
2018-04-07T07:07:04.736Z,18.72
2018-04-07T07:09:33.100Z,18.37
2018-04-07T07:12:02.781Z,18.10
2018-04-07T07:14:30.848Z,17.96
2018-04-07T07:16:59.731Z,17.74
2018-04-07T07:19:28.189Z,17.57
2018-04-07T07:21:56.786Z,17.60
2018-04-07T07:24:24.359Z,17.62
2018-04-07T07:26:51.964Z,17.45
2018-04-07T07:29:20.060Z,17.33
2018-04-07T07:31:47.665Z,17.29
2018-04-07T07:34:16.160Z,17.25
2018-04-07T07:36:44.172Z,17.31
2018-04-07T07:39:12.248Z,17.37
2018-04-07T07:41:40.513Z,17.43
2018-04-07T07:44:08.113Z,17.39
2018-04-07T07:46:36.869Z,17.42
2018-04-07T07:49:04.836Z,17.50
2018-04-07T07:51:33.025Z,17.58
2018-04-07T07:54:00.620Z,17.76
2018-04-07T07:56:28.807Z,17.92
2018-04-07T07:58:56.396Z,18.02
2018-04-07T08:01:25.240Z,18.11
2018-04-07T08:03:52.784Z,18.24
2018-04-07T08:06:20.388Z,18.34
2018-04-07T08:08:49.443Z,18.32
2018-04-07T08:11:17.816Z,18.61
2018-04-07T08:13:46.705Z,18.86
2018-04-07T08:16:14.255Z,19.11
2018-04-07T08:18:41.918Z,19.18
2018-04-07T08:21:09.524Z,19.17
2018-04-07T08:23:37.460Z,19.30
2018-04-07T08:26:05.017Z,19.32
2018-04-07T08:28:32.705Z,19.40
2018-04-07T08:31:01.052Z,19.46
2018-04-07T08:33:28.599Z,19.61
2018-04-07T08:35:56.192Z,19.62
2018-04-07T08:38:24.302Z,19.71
2018-04-07T08:40:52.441Z,19.79
2018-04-07T08:43:22.134Z,19.95
2018-04-07T08:45:49.736Z,19.87
2018-04-07T08:48:17.735Z,20.03
2018-04-07T08:50:45.280Z,20.21
2018-04-07T08:53:13.572Z,20.29
2018-04-07T08:55:41.612Z,20.29
2018-04-07T08:58:09.175Z,20.04
2018-04-07T09:00:37.470Z,20.17
2018-04-07T09:03:05.791Z,20.22
2018-04-07T09:05:33.762Z,20.37
2018-04-07T09:08:01.617Z,20.52
2018-04-07T09:10:29.879Z,20.57
2018-04-07T09:12:57.430Z,20.62
2018-04-07T09:15:24.983Z,20.61
2018-04-07T09:17:52.571Z,20.67
2018-04-07T09:20:20.421Z,20.77
2018-04-07T09:22:49.005Z,20.86
2018-04-07T09:25:17.998Z,20.92
2018-04-07T09:27:46.120Z,20.99
2018-04-07T09:30:14.288Z,21.08
2018-04-07T09:32:41.880Z,21.06
2018-04-07T09:35:11.000Z,21.03
2018-04-07T09:37:38.541Z,21.04
2018-04-07T09:40:07.224Z,21.16
2018-04-07T09:42:34.773Z,21.24
2018-04-07T09:45:02.756Z,21.31
2018-04-07T09:47:30.587Z,21.31
2018-04-07T09:49:58.146Z,21.37
2018-04-07T09:52:26.733Z,21.37
2018-04-07T09:54:56.077Z,21.43
2018-04-07T09:57:23.626Z,21.51
2018-04-07T09:59:52.223Z,21.46
2018-04-07T10:02:19.973Z,21.41
2018-04-07T10:04:48.859Z,21.56
2018-04-07T10:07:17.724Z,21.62
2018-04-07T10:09:46.841Z,21.68
2018-04-07T10:12:14.449Z,21.69
2018-04-07T10:14:42.009Z,21.72
2018-04-07T10:17:09.640Z,21.72
2018-04-07T10:19:37.532Z,21.65
2018-04-07T10:22:06.043Z,21.66
2018-04-07T10:24:34.272Z,21.64
2018-04-07T10:27:04.167Z,21.57
2018-04-07T10:29:32.267Z,21.52
2018-04-07T10:31:59.816Z,21.54
2018-04-07T10:34:27.979Z,21.55
2018-04-07T10:36:55.520Z,21.55
2018-04-07T10:39:24.556Z,21.55
2018-04-07T10:41:52.500Z,21.59
2018-04-07T10:44:23.325Z,21.59
2018-04-07T10:46:50.869Z,21.57
2018-04-07T10:49:19.159Z,21.52
2018-04-07T10:51:46.704Z,21.51
2018-04-07T10:54:15.272Z,21.56
2018-04-07T10:56:44.425Z,21.53
2018-04-07T10:59:11.980Z,21.53
2018-04-07T11:01:39.524Z,21.54
2018-04-07T11:04:07.616Z,21.52
2018-04-07T11:06:36.548Z,21.51
2018-04-07T11:09:04.313Z,21.47
2018-04-07T11:11:33.342Z,21.47
2018-04-07T11:14:02.953Z,21.46
2018-04-07T11:16:31.945Z,21.43
2018-04-07T11:18:59.544Z,21.41
2018-04-07T11:21:27.228Z,21.38
2018-04-07T11:23:55.857Z,21.36
2018-04-07T11:26:24.084Z,21.36
2018-04-07T11:28:52.692Z,21.33
2018-04-07T11:31:22.624Z,21.34
2018-04-07T11:33:50.931Z,21.39
2018-04-07T11:36:18.550Z,21.40
2018-04-07T11:38:46.104Z,21.40
2018-04-07T11:41:16.045Z,21.39
2018-04-07T11:43:43.593Z,21.36
2018-04-07T11:46:12.440Z,21.34
2018-04-07T11:48:39.989Z,21.34
2018-04-07T11:51:08.843Z,21.30
2018-04-07T11:53:37.619Z,21.27
2018-04-07T11:56:06.475Z,21.26
2018-04-07T11:58:34.910Z,21.28
2018-04-07T12:01:02.502Z,21.33
2018-04-07T12:03:30.673Z,21.34
2018-04-07T12:05:58.481Z,21.35
2018-04-07T12:08:26.032Z,21.34
2018-04-07T12:10:55.058Z,21.36
2018-04-07T12:13:22.900Z,21.35
2018-04-07T12:15:50.492Z,21.32
2018-04-07T12:18:18.042Z,21.32
2018-04-07T12:20:46.448Z,21.32
2018-04-07T12:23:14.342Z,21.30
2018-04-07T12:25:43.149Z,21.27
2018-04-07T12:28:10.699Z,21.25
2018-04-07T12:30:38.305Z,21.22
2018-04-07T12:33:05.855Z,21.20
2018-04-07T12:35:33.451Z,21.20
2018-04-07T12:38:01.003Z,21.24
2018-04-07T12:40:28.584Z,21.25
2018-04-07T12:42:56.627Z,21.24
2018-04-07T12:45:24.218Z,21.28
2018-04-07T12:47:52.102Z,21.30
2018-04-07T12:50:20.572Z,21.30
2018-04-07T12:52:48.416Z,21.32
2018-04-07T12:55:16.558Z,21.30
2018-04-07T12:57:44.149Z,21.30
2018-04-07T13:00:11.745Z,21.30
2018-04-07T13:02:39.860Z,21.29
2018-04-07T13:05:07.408Z,21.28
2018-04-07T13:07:36.056Z,21.27
2018-04-07T13:10:03.877Z,21.26
2018-04-07T13:12:31.543Z,21.27
2018-04-07T13:14:59.538Z,21.26
2018-04-07T13:17:27.109Z,21.27
2018-04-07T13:19:54.992Z,21.27
2018-04-07T13:22:23.533Z,21.28
2018-04-07T13:24:51.399Z,21.27
2018-04-07T13:27:18.996Z,21.27
2018-04-07T13:29:46.563Z,21.26
2018-04-07T13:32:14.721Z,21.26
2018-04-07T13:34:42.990Z,21.27
2018-04-07T13:37:10.540Z,21.28
2018-04-07T13:39:38.155Z,21.27
2018-04-07T13:42:06.114Z,21.27
2018-04-07T13:44:33.672Z,21.28
2018-04-07T13:47:01.524Z,21.27
2018-04-07T13:49:29.070Z,21.28
2018-04-07T13:51:57.640Z,21.26
2018-04-07T13:54:25.242Z,21.26
2018-04-07T13:56:52.789Z,21.26
2018-04-07T13:59:20.492Z,21.24
2018-04-07T14:01:48.041Z,21.23
2018-04-07T14:04:16.567Z,21.24
2018-04-07T14:06:44.795Z,21.25
2018-04-07T14:09:12.669Z,21.25
2018-04-07T14:11:41.280Z,21.24
2018-04-07T14:14:09.785Z,21.24
2018-04-07T14:16:37.527Z,21.23
2018-04-07T14:19:05.083Z,21.25
2018-04-07T14:21:33.880Z,21.24
2018-04-07T14:24:01.425Z,21.24
2018-04-07T14:26:29.509Z,21.24
2018-04-07T14:28:57.104Z,21.22
2018-04-07T14:31:24.657Z,21.23
2018-04-07T14:33:53.622Z,21.24
2018-04-07T14:36:22.930Z,21.24
2018-04-07T14:38:50.473Z,21.25
2018-04-07T14:41:18.110Z,21.24
2018-04-07T14:43:45.725Z,21.22
2018-04-07T14:46:14.491Z,21.23
2018-04-07T14:48:42.541Z,21.23
2018-04-07T14:51:10.164Z,21.22
2018-04-07T14:53:37.708Z,21.22
2018-04-07T14:56:05.260Z,21.23
2018-04-07T14:58:33.948Z,21.23
2018-04-07T15:01:02.046Z,21.24
2018-04-07T15:03:29.596Z,21.24
2018-04-07T15:05:57.335Z,21.22
2018-04-07T15:08:25.964Z,21.22
2018-04-07T15:10:53.724Z,21.22
2018-04-07T15:13:22.439Z,21.21
2018-04-07T15:15:51.017Z,21.22
2018-04-07T15:18:19.063Z,21.22
2018-04-07T15:20:46.628Z,21.21
2018-04-07T15:23:14.216Z,21.21
2018-04-07T15:25:42.521Z,21.21
2018-04-07T15:28:10.262Z,21.21
2018-04-07T15:30:38.029Z,21.20
2018-04-07T15:33:05.581Z,21.20
2018-04-07T15:35:33.192Z,21.19
2018-04-07T15:38:01.452Z,21.19
2018-04-07T15:40:29.352Z,21.22
2018-04-07T15:42:57.217Z,21.21
2018-04-07T15:45:26.141Z,21.20
2018-04-07T15:47:54.212Z,21.19
2018-04-07T15:50:21.941Z,21.19
2018-04-07T15:52:50.394Z,21.18
2018-04-07T15:55:19.420Z,21.20
2018-04-07T15:57:47.008Z,21.20
2018-04-07T16:00:15.627Z,21.17
2018-04-07T16:02:43.695Z,21.15
2018-04-07T16:05:12.627Z,21.13
2018-04-07T16:07:40.248Z,21.12
2018-04-07T16:10:07.876Z,21.10
2018-04-07T16:12:35.984Z,21.08
2018-04-07T16:15:03.537Z,21.07
2018-04-07T16:17:31.151Z,21.05
2018-04-07T16:19:58.709Z,21.04
2018-04-07T16:22:26.593Z,21.01
2018-04-07T16:24:54.140Z,21.00
2018-04-07T16:27:21.682Z,20.98
2018-04-07T16:29:50.670Z,20.96
2018-04-07T16:32:18.239Z,20.94
2018-04-07T16:34:45.820Z,20.90
2018-04-07T16:37:13.421Z,20.86
2018-04-07T16:39:41.385Z,20.83
2018-04-07T16:42:09.622Z,20.81
2018-04-07T16:44:37.968Z,20.79
2018-04-07T16:47:06.333Z,20.76
2018-04-07T16:49:34.832Z,20.73
2018-04-07T16:52:02.376Z,20.71
2018-04-07T16:54:29.996Z,20.67
2018-04-07T16:56:58.420Z,20.65
2018-04-07T16:59:25.968Z,20.61
2018-04-07T17:01:54.273Z,20.56
2018-04-07T17:04:22.362Z,20.53
2018-04-07T17:06:49.917Z,20.49
2018-04-07T17:09:17.522Z,20.46
2018-04-07T17:11:46.166Z,20.42
2018-04-07T17:14:13.941Z,20.35
2018-04-07T17:16:41.898Z,20.32
2018-04-07T17:19:09.865Z,20.27
2018-04-07T17:21:37.473Z,20.23
2018-04-07T17:24:05.112Z,20.19
2018-04-07T17:26:33.464Z,20.17
2018-04-07T17:29:01.594Z,20.00
2018-04-07T17:31:29.968Z,19.92
2018-04-07T17:33:59.112Z,19.94
2018-04-07T17:36:26.667Z,19.93
2018-04-07T17:38:54.480Z,19.93
2018-04-07T17:41:23.018Z,19.78
2018-04-07T17:43:51.316Z,19.66
2018-04-07T17:46:21.188Z,19.61
2018-04-07T17:48:49.254Z,19.49
2018-04-07T17:51:16.804Z,19.42
2018-04-07T17:53:45.711Z,19.42
2018-04-07T17:56:13.598Z,19.38
2018-04-07T17:58:41.389Z,19.42
2018-04-07T18:01:10.234Z,19.22
2018-04-07T18:03:38.176Z,19.25
2018-04-07T18:06:06.366Z,19.36
2018-04-07T18:08:34.924Z,19.47
2018-04-07T18:11:03.566Z,19.53
2018-04-07T18:13:31.617Z,19.54
2018-04-07T18:16:01.857Z,19.39
2018-04-07T18:18:30.811Z,19.23
2018-04-07T18:20:59.184Z,19.31
2018-04-07T18:23:26.761Z,19.38
2018-04-07T18:25:56.282Z,19.46
2018-04-07T18:28:25.572Z,19.23
2018-04-07T18:30:53.353Z,19.24
2018-04-07T18:33:22.185Z,19.20
2018-04-07T18:35:50.208Z,18.97
2018-04-07T18:38:18.222Z,18.92
2018-04-07T18:40:46.354Z,18.64
2018-04-07T18:43:15.321Z,18.54
2018-04-07T18:45:42.893Z,18.69
2018-04-07T18:48:12.452Z,18.77
2018-04-07T18:50:40.008Z,18.74
2018-04-07T18:53:08.571Z,18.64
2018-04-07T18:55:36.325Z,18.41
2018-04-07T18:58:04.882Z,18.37
2018-04-07T19:00:32.965Z,18.52
2018-04-07T19:03:00.904Z,18.47
2018-04-07T19:05:29.238Z,18.53
2018-04-07T19:07:56.924Z,18.46
2018-04-07T19:10:25.253Z,18.46
2018-04-07T19:12:54.739Z,18.09
2018-04-07T19:15:22.785Z,17.70
2018-04-07T19:17:51.559Z,17.51
2018-04-07T19:20:19.116Z,17.21
2018-04-07T19:22:47.751Z,17.06
2018-04-07T19:25:15.625Z,16.97
2018-04-07T19:27:43.557Z,16.91
2018-04-07T19:30:11.405Z,17.07
2018-04-07T19:32:39.020Z,17.07
2018-04-07T19:35:06.880Z,17.00
2018-04-07T19:37:34.956Z,17.22
2018-04-07T19:40:03.942Z,17.47
2018-04-07T19:42:32.320Z,17.53
2018-04-07T19:45:01.760Z,17.73
2018-04-07T19:47:29.320Z,17.72
2018-04-07T19:49:57.306Z,17.82
2018-04-07T19:52:25.532Z,17.81
2018-04-07T19:54:53.225Z,17.91
2018-04-07T19:57:21.054Z,17.94
2018-04-07T19:59:49.396Z,17.93
2018-04-07T20:02:18.397Z,17.93
2018-04-07T20:04:46.977Z,17.95
2018-04-07T20:07:14.537Z,18.03
2018-04-07T20:09:42.132Z,17.96
2018-04-07T20:12:10.295Z,17.77
2018-04-07T20:14:37.916Z,17.53
2018-04-07T20:17:05.555Z,16.79
2018-04-07T20:19:33.573Z,16.36
2018-04-07T20:22:01.514Z,16.01
2018-04-07T20:24:29.068Z,15.98
2018-04-07T20:26:58.272Z,15.88
2018-04-07T20:29:26.858Z,16.04
2018-04-07T20:31:55.589Z,16.04
2018-04-07T20:34:23.160Z,15.92
2018-04-07T20:36:51.453Z,15.91
2018-04-07T20:39:19.844Z,15.83
2018-04-07T20:41:49.063Z,16.14
2018-04-07T20:44:28.347Z,16.51
2018-04-07T20:46:56.495Z,16.39
2018-04-07T20:49:24.508Z,16.12
2018-04-07T20:51:53.085Z,15.95
2018-04-07T20:54:21.596Z,15.85
2018-04-07T20:56:50.036Z,15.77
2018-04-07T20:59:17.664Z,15.86
2018-04-07T21:01:47.591Z,15.87
2018-04-07T21:04:15.728Z,16.15
2018-04-07T21:06:43.972Z,16.25
2018-04-07T21:09:11.592Z,16.28
2018-04-07T21:11:39.478Z,16.57
2018-04-07T21:14:08.149Z,16.76
2018-04-07T21:16:36.758Z,16.79
2018-04-07T21:19:04.808Z,16.34
2018-04-07T21:21:32.364Z,16.19
2018-04-07T21:24:00.193Z,16.39
2018-04-07T21:26:28.536Z,15.97
2018-04-07T21:28:56.097Z,15.67
2018-04-07T21:31:23.657Z,15.73
2018-04-07T21:33:51.644Z,15.78
2018-04-07T21:36:19.208Z,16.00
2018-04-07T21:38:47.323Z,16.19
2018-04-07T21:41:15.116Z,16.06
2018-04-07T21:43:42.858Z,15.62
2018-04-07T21:46:10.424Z,15.50
2018-04-07T21:48:39.437Z,15.15
2018-04-07T21:51:08.354Z,14.91
2018-04-07T21:53:35.984Z,15.01
2018-04-07T21:56:03.564Z,15.22
2018-04-07T21:58:31.775Z,15.56
2018-04-07T22:00:59.608Z,15.90
2018-04-07T22:03:27.232Z,15.51
2018-04-07T22:05:55.488Z,15.35
2018-04-07T22:08:23.380Z,14.84
2018-04-07T22:10:51.525Z,14.58
2018-04-07T22:13:19.484Z,14.40
2018-04-07T22:15:47.704Z,14.68
2018-04-07T22:18:15.268Z,15.09
2018-04-07T22:20:42.855Z,15.16
2018-04-07T22:23:10.473Z,14.94
2018-04-07T22:25:38.056Z,14.67
2018-04-07T22:28:05.689Z,14.55
2018-04-07T22:30:34.048Z,14.40
2018-04-07T22:33:01.630Z,14.34
2018-04-07T22:35:29.280Z,14.30
2018-04-07T22:37:57.033Z,14.16
2018-04-07T22:40:24.616Z,14.05
2018-04-07T22:42:52.560Z,14.07
2018-04-07T22:45:20.181Z,13.98
2018-04-07T22:47:47.991Z,13.91
2018-04-07T22:50:16.384Z,14.31
2018-04-07T22:52:44.295Z,14.78
2018-04-07T22:55:11.896Z,15.06
2018-04-07T22:57:39.451Z,14.85
2018-04-07T23:00:07.098Z,14.51
2018-04-07T23:02:35.608Z,14.32
2018-04-07T23:05:03.509Z,14.04
2018-04-07T23:07:31.590Z,14.01
2018-04-07T23:09:59.705Z,13.77
2018-04-07T23:12:27.273Z,13.74
2018-04-07T23:14:54.828Z,13.68
2018-04-07T23:17:22.452Z,13.69
2018-04-07T23:19:50.293Z,13.76
2018-04-07T23:22:18.127Z,14.01
2018-04-07T23:24:45.736Z,14.30
2018-04-07T23:27:13.336Z,14.03
2018-04-07T23:29:41.328Z,13.87
2018-04-07T23:32:09.371Z,13.85
2018-04-07T23:34:37.355Z,13.84
2018-04-07T23:37:04.968Z,13.82
2018-04-07T23:39:32.572Z,13.72
2018-04-07T23:42:00.168Z,13.56
2018-04-07T23:44:27.724Z,13.53
2018-04-07T23:46:56.132Z,13.48
2018-04-07T23:49:23.684Z,13.34
2018-04-07T23:51:52.063Z,13.51
2018-04-07T23:54:20.347Z,13.79
2018-04-07T23:56:47.952Z,14.08
2018-04-07T23:59:15.518Z,14.43
